createdAt,value
2023-06-07T00:00:46.402Z,23.04
2023-06-07T00:01:46.492Z,23.04
2023-06-07T00:02:46.542Z,23.04
2023-06-07T00:03:46.561Z,23.04
2023-06-07T00:04:46.646Z,23.03
2023-06-07T00:05:46.667Z,23.03
2023-06-07T00:06:46.616Z,23.03
2023-06-07T00:07:46.728Z,23.03
2023-06-07T00:08:46.668Z,23.03
2023-06-07T00:09:46.723Z,23.03
2023-06-07T00:10:46.836Z,23.03
2023-06-07T00:11:46.859Z,23.03
2023-06-07T00:12:46.910Z,23.02
2023-06-07T00:13:46.872Z,23.03
2023-06-07T00:14:46.919Z,23.03
2023-06-07T00:15:46.953Z,23.02
2023-06-07T00:16:46.997Z,23.02
2023-06-07T00:17:47.103Z,23.02
2023-06-07T00:18:47.066Z,23.02
2023-06-07T00:19:47.115Z,23.00
2023-06-07T00:20:47.150Z,23.02
2023-06-07T00:21:47.189Z,23.01
2023-06-07T00:22:47.241Z,23.02
2023-06-07T00:23:47.294Z,23.01
2023-06-07T00:24:47.346Z,23.00
2023-06-07T00:25:47.355Z,23.01
2023-06-07T00:26:47.537Z,23.00
2023-06-07T00:27:47.441Z,23.00
2023-06-07T00:28:47.528Z,23.00
2023-06-07T00:29:47.516Z,23.01
2023-06-07T00:30:47.595Z,23.00
2023-06-07T00:31:47.600Z,23.00
2023-06-07T00:32:48.404Z,22.99
2023-06-07T00:33:47.681Z,23.00
2023-06-07T00:34:47.725Z,22.99
2023-06-07T00:35:47.821Z,22.99
2023-06-07T00:36:47.840Z,22.99
2023-06-07T00:37:47.824Z,23.00
2023-06-07T00:38:47.858Z,22.99
2023-06-07T00:39:47.916Z,22.98
2023-06-07T00:40:47.961Z,22.99
2023-06-07T00:41:47.990Z,22.98
2023-06-07T00:42:48.040Z,22.98
2023-06-07T00:43:48.062Z,22.97
2023-06-07T00:44:48.106Z,22.97
2023-06-07T00:45:48.148Z,22.98
2023-06-07T00:46:48.187Z,22.97
2023-06-07T00:47:48.297Z,22.98
2023-06-07T00:48:48.404Z,22.97
2023-06-07T00:49:48.313Z,22.97
2023-06-07T00:50:48.367Z,22.97
2023-06-07T00:51:48.416Z,22.97
2023-06-07T00:52:48.439Z,22.96
2023-06-07T00:53:48.497Z,22.97
2023-06-07T00:54:48.556Z,22.96
2023-06-07T00:55:48.591Z,22.96
2023-06-07T00:56:48.624Z,22.96
2023-06-07T00:57:48.674Z,22.96
2023-06-07T00:58:49.326Z,22.96
2023-06-07T00:59:48.749Z,22.96
2023-06-07T01:00:48.818Z,22.95
2023-06-07T01:01:48.888Z,22.95
2023-06-07T01:02:49.031Z,22.96
2023-06-07T01:03:49.006Z,22.95
2023-06-07T01:04:48.981Z,22.95
2023-06-07T01:05:49.029Z,22.95
2023-06-07T01:06:49.079Z,22.95
2023-06-07T01:07:49.129Z,22.94
2023-06-07T01:08:49.177Z,22.94
2023-06-07T01:09:49.230Z,22.94
2023-06-07T01:10:49.291Z,22.94
2023-06-07T01:11:49.331Z,22.94
2023-06-07T01:12:49.380Z,22.94
2023-06-07T01:13:49.529Z,22.94
2023-06-07T01:14:49.541Z,22.94
2023-06-07T01:15:49.524Z,22.93
2023-06-07T01:16:49.773Z,22.93
2023-06-07T01:17:49.651Z,22.93
2023-06-07T01:18:49.678Z,22.93
2023-06-07T01:19:49.821Z,22.94
2023-06-07T01:20:49.866Z,22.93
2023-06-07T01:21:49.831Z,22.93
2023-06-07T01:22:49.876Z,22.93
2023-06-07T01:23:49.961Z,22.93
2023-06-07T01:24:49.983Z,22.93
2023-06-07T01:25:50.039Z,22.92
2023-06-07T01:26:50.094Z,22.92
2023-06-07T01:27:50.126Z,22.92
2023-06-07T01:28:50.187Z,22.92
2023-06-07T01:29:50.235Z,22.92
2023-06-07T01:30:50.440Z,22.91
2023-06-07T01:31:50.365Z,22.92
2023-06-07T01:32:50.432Z,22.91
2023-06-07T01:33:50.456Z,22.91
2023-06-07T01:34:50.509Z,22.91
2023-06-07T01:35:50.568Z,22.90
2023-06-07T01:36:50.609Z,22.90
2023-06-07T01:37:50.692Z,22.90
2023-06-07T01:38:50.704Z,22.90
2023-06-07T01:39:50.763Z,22.91
2023-06-07T01:40:50.825Z,22.90
2023-06-07T01:41:50.869Z,22.90
2023-06-07T01:42:50.936Z,22.89
2023-06-07T01:43:50.964Z,22.90
2023-06-07T01:44:50.999Z,22.89
2023-06-07T01:45:51.068Z,22.89
2023-06-07T01:46:51.100Z,22.89
2023-06-07T01:47:51.301Z,22.89
2023-06-07T01:48:51.199Z,22.88
2023-06-07T01:49:51.289Z,22.89
2023-06-07T01:50:51.304Z,22.88
2023-06-07T01:51:51.349Z,22.88
2023-06-07T01:52:51.467Z,22.89
2023-06-07T01:53:51.455Z,22.88
2023-06-07T01:54:51.506Z,22.88
2023-06-07T01:55:51.559Z,22.88
2023-06-07T01:56:51.637Z,22.87
2023-06-07T01:57:51.649Z,22.87
2023-06-07T01:58:51.707Z,22.87
2023-06-07T01:59:51.760Z,22.87
2023-06-07T02:00:51.810Z,22.87
2023-06-07T02:01:51.959Z,22.87
2023-06-07T02:02:52.877Z,22.87
2023-06-07T02:03:52.007Z,22.87
2023-06-07T02:04:52.022Z,22.87
2023-06-07T02:05:52.057Z,22.87
2023-06-07T02:06:52.108Z,22.86
2023-06-07T02:07:52.162Z,22.86
2023-06-07T02:08:52.216Z,22.85
2023-06-07T02:09:52.270Z,22.86
2023-06-07T02:10:52.328Z,22.86
2023-06-07T02:11:52.376Z,22.85
2023-06-07T02:12:52.438Z,22.85
2023-06-07T02:13:52.488Z,22.85
2023-06-07T02:14:52.536Z,22.85
2023-06-07T02:15:52.648Z,22.85
2023-06-07T02:16:52.649Z,22.84
2023-06-07T02:17:52.743Z,22.85
2023-06-07T02:18:52.863Z,22.85
2023-06-07T02:19:52.792Z,22.83
2023-06-07T02:20:52.883Z,22.83
2023-06-07T02:21:52.952Z,22.83
2023-06-07T02:22:52.934Z,22.83
2023-06-07T02:23:53.028Z,22.83
2023-06-07T02:24:53.042Z,22.83
2023-06-07T02:25:53.089Z,22.83
2023-06-07T02:26:53.869Z,22.82
2023-06-07T02:27:53.192Z,22.82
2023-06-07T02:28:53.262Z,22.82
2023-06-07T02:29:53.298Z,22.82
2023-06-07T02:30:53.357Z,22.82
2023-06-07T02:31:53.468Z,22.82
2023-06-07T02:32:53.511Z,22.82
2023-06-07T02:33:53.507Z,22.82
2023-06-07T02:34:53.558Z,22.81
2023-06-07T02:35:53.608Z,22.81
2023-06-07T02:36:53.663Z,22.81
2023-06-07T02:37:53.717Z,22.80
2023-06-07T02:38:53.793Z,22.81
2023-06-07T02:39:53.900Z,22.80
2023-06-07T02:40:53.893Z,22.80
2023-06-07T02:41:53.935Z,22.80
2023-06-07T02:42:53.982Z,22.80
2023-06-07T02:43:54.044Z,22.80
2023-06-07T02:44:54.173Z,22.80
2023-06-07T02:45:54.163Z,22.79
2023-06-07T02:46:54.258Z,22.79
2023-06-07T02:47:54.293Z,22.78
2023-06-07T02:48:54.332Z,22.79
2023-06-07T02:49:54.394Z,22.78
2023-06-07T02:50:54.457Z,22.78
2023-06-07T02:51:54.537Z,22.78
2023-06-07T02:52:54.570Z,22.77
2023-06-07T02:53:54.708Z,22.78
2023-06-07T02:54:54.698Z,22.77
2023-06-07T02:55:54.778Z,22.77
2023-06-07T02:56:54.822Z,22.77
2023-06-07T02:57:54.918Z,22.77
2023-06-07T02:58:54.949Z,22.77
2023-06-07T02:59:55.003Z,22.77
2023-06-07T03:00:55.117Z,22.76
2023-06-07T03:01:55.130Z,22.76
2023-06-07T03:02:55.432Z,22.76
2023-06-07T03:03:55.250Z,22.76
2023-06-07T03:04:55.299Z,22.76
2023-06-07T03:05:55.396Z,22.76
2023-06-07T03:06:55.529Z,22.75
2023-06-07T03:07:55.454Z,22.76
2023-06-07T03:08:55.557Z,22.75
2023-06-07T03:09:55.556Z,22.75
2023-06-07T03:10:56.431Z,22.74
2023-06-07T03:11:55.742Z,22.74
2023-06-07T03:12:55.745Z,22.73
2023-06-07T03:13:55.810Z,22.74
2023-06-07T03:14:55.853Z,22.74
2023-06-07T03:15:55.913Z,22.74
2023-06-07T03:16:56.017Z,22.74
2023-06-07T03:17:56.068Z,22.74
2023-06-07T03:18:56.085Z,22.73
2023-06-07T03:19:56.208Z,22.74
2023-06-07T03:20:56.251Z,22.73
2023-06-07T03:21:56.277Z,22.73
2023-06-07T03:22:56.326Z,22.73
2023-06-07T03:23:56.472Z,22.72
2023-06-07T03:24:56.439Z,22.73
2023-06-07T03:25:56.589Z,22.72
2023-06-07T03:26:56.557Z,22.72
2023-06-07T03:27:56.616Z,22.72
2023-06-07T03:28:56.669Z,22.72
2023-06-07T03:29:56.732Z,22.72
2023-06-07T03:30:56.864Z,22.72
2023-06-07T03:31:56.853Z,22.72
2023-06-07T03:32:56.954Z,22.71
2023-06-07T03:33:56.968Z,22.71
2023-06-07T03:34:57.025Z,22.72
2023-06-07T03:35:57.083Z,22.71
2023-06-07T03:36:57.158Z,22.72
2023-06-07T03:37:57.254Z,22.71
2023-06-07T03:38:57.267Z,22.71
2023-06-07T03:39:57.325Z,22.71
2023-06-07T03:40:57.384Z,22.71
2023-06-07T03:41:57.449Z,22.71
2023-06-07T03:42:58.397Z,22.70
2023-06-07T03:43:57.579Z,22.71
2023-06-07T03:44:57.637Z,22.70
2023-06-07T03:45:57.708Z,22.70
2023-06-07T03:46:57.839Z,22.70
2023-06-07T03:47:58.028Z,22.69
2023-06-07T03:48:57.928Z,22.70
2023-06-07T03:49:57.946Z,22.70
2023-06-07T03:50:58.004Z,22.69
2023-06-07T03:51:58.069Z,22.69
2023-06-07T03:52:58.120Z,22.69
2023-06-07T03:53:58.185Z,22.69
2023-06-07T03:54:58.266Z,22.69
2023-06-07T03:55:58.309Z,22.69
2023-06-07T03:56:58.384Z,22.68
2023-06-07T03:57:58.408Z,22.68
2023-06-07T03:58:58.551Z,22.68
2023-06-07T03:59:58.555Z,22.68
2023-06-07T04:00:58.601Z,22.68
2023-06-07T04:01:59.406Z,22.68
2023-06-07T04:02:58.785Z,22.68
2023-06-07T04:03:58.941Z,22.68
2023-06-07T04:04:58.908Z,22.68
2023-06-07T04:05:58.892Z,22.67
2023-06-07T04:06:58.955Z,22.68
2023-06-07T04:07:59.029Z,22.67
2023-06-07T04:08:59.076Z,22.67
2023-06-07T04:09:59.134Z,22.67
2023-06-07T04:10:59.190Z,22.67
2023-06-07T04:11:59.254Z,22.67
2023-06-07T04:12:59.312Z,22.68
2023-06-07T04:13:59.363Z,22.67
2023-06-07T04:14:59.419Z,22.67
2023-06-07T04:15:59.529Z,22.67
2023-06-07T04:16:59.573Z,22.67
2023-06-07T04:17:59.676Z,22.66
2023-06-07T04:19:01.946Z,22.66
2023-06-07T04:19:59.668Z,22.66
2023-06-07T04:20:59.681Z,22.66
2023-06-07T04:21:59.687Z,22.66
2023-06-07T04:22:59.700Z,22.66
2023-06-07T04:23:59.736Z,22.66
2023-06-07T04:24:59.712Z,22.66
2023-06-07T04:25:59.716Z,22.66
2023-06-07T04:26:59.731Z,22.67
2023-06-07T04:27:59.723Z,22.67
2023-06-07T04:28:59.729Z,22.66
2023-06-07T04:29:59.741Z,22.66
2023-06-07T04:30:59.759Z,22.67
2023-06-07T04:31:59.826Z,22.66
2023-06-07T04:32:59.834Z,22.67
2023-06-07T04:33:59.787Z,22.66
2023-06-07T04:34:59.775Z,22.66
2023-06-07T04:35:59.792Z,22.66
2023-06-07T04:36:59.809Z,22.66
2023-06-07T04:37:59.793Z,22.67
2023-06-07T04:38:59.812Z,22.67
2023-06-07T04:39:59.813Z,22.67
2023-06-07T04:40:59.818Z,22.67
2023-06-07T04:41:59.816Z,22.67
2023-06-07T04:42:59.823Z,22.67
2023-06-07T04:43:59.892Z,22.67
2023-06-07T04:44:59.840Z,22.66
2023-06-07T04:45:59.846Z,22.67
2023-06-07T04:47:06.584Z,22.67
2023-06-07T04:48:00.919Z,22.66
2023-06-07T04:48:59.893Z,22.66
2023-06-07T04:49:59.885Z,22.66
2023-06-07T04:50:59.883Z,22.66
2023-06-07T04:51:59.902Z,22.67
2023-06-07T04:52:59.890Z,22.66
2023-06-07T04:54:00.423Z,22.66
2023-06-07T04:55:00.444Z,22.67
2023-06-07T04:55:59.915Z,22.67
2023-06-07T04:56:59.917Z,22.66
2023-06-07T04:58:00.932Z,22.67
2023-06-07T04:59:00.069Z,22.67
2023-06-07T05:00:00.929Z,22.66
2023-06-07T05:01:00.166Z,22.67
2023-06-07T05:02:00.243Z,22.67
2023-06-07T05:03:00.349Z,22.67
2023-06-07T05:04:00.377Z,22.67
2023-06-07T05:05:00.963Z,22.67
2023-06-07T05:06:00.447Z,22.67
2023-06-07T05:07:00.507Z,22.68
2023-06-07T05:08:00.569Z,22.68
2023-06-07T05:09:00.627Z,22.67
2023-06-07T05:10:00.762Z,22.67
2023-06-07T05:11:00.766Z,22.67
2023-06-07T05:12:00.884Z,22.68
2023-06-07T05:13:00.889Z,22.68
2023-06-07T05:14:00.943Z,22.67
2023-06-07T05:15:00.999Z,22.67
2023-06-07T05:16:01.108Z,22.67
2023-06-07T05:17:01.250Z,22.67
2023-06-07T05:18:01.206Z,22.67
2023-06-07T05:19:01.247Z,22.68
2023-06-07T05:20:01.352Z,22.66
2023-06-07T05:21:01.378Z,22.51
2023-06-07T05:22:01.397Z,22.30
2023-06-07T05:23:01.418Z,22.15
2023-06-07T05:24:01.483Z,21.96
2023-06-07T05:25:01.625Z,21.73
2023-06-07T05:26:01.623Z,21.49
2023-06-07T05:27:01.647Z,21.36
2023-06-07T05:28:12.242Z,21.18
2023-06-07T05:29:02.815Z,20.99
2023-06-07T05:30:01.850Z,21.06
2023-06-07T05:31:01.874Z,21.15
2023-06-07T05:32:01.867Z,21.23
2023-06-07T05:33:01.938Z,21.34
2023-06-07T05:34:01.883Z,21.46
2023-06-07T05:35:01.908Z,21.60
2023-06-07T05:36:01.961Z,21.75
2023-06-07T05:37:01.941Z,21.88
2023-06-07T05:38:01.966Z,21.98
2023-06-07T05:39:01.972Z,22.09
2023-06-07T05:40:02.043Z,22.18
2023-06-07T05:41:01.993Z,22.26
2023-06-07T05:42:02.001Z,22.33
2023-06-07T05:43:02.068Z,22.40
2023-06-07T05:44:02.116Z,22.46
2023-06-07T05:45:02.185Z,22.50
2023-06-07T05:46:02.943Z,22.54
2023-06-07T05:47:02.348Z,22.58
2023-06-07T05:48:02.337Z,22.61
2023-06-07T05:49:02.345Z,22.66
2023-06-07T05:50:02.440Z,22.69
2023-06-07T05:51:02.390Z,22.73
2023-06-07T05:52:02.411Z,22.76
2023-06-07T05:53:02.422Z,22.79
2023-06-07T05:54:02.421Z,22.82
2023-06-07T05:55:02.415Z,22.87
2023-06-07T05:56:02.459Z,22.90
2023-06-07T05:57:02.446Z,22.93
2023-06-07T05:58:02.435Z,22.96
2023-06-07T05:59:02.458Z,22.98
2023-06-07T06:00:02.767Z,23.00
2023-06-07T06:01:02.514Z,23.03
2023-06-07T06:02:02.605Z,23.05
2023-06-07T06:03:02.833Z,23.07
2023-06-07T06:04:02.653Z,23.10
2023-06-07T06:05:02.740Z,23.12
2023-06-07T06:06:02.705Z,23.14
2023-06-07T06:07:02.738Z,23.16
2023-06-07T06:08:02.803Z,23.18
2023-06-07T06:09:02.873Z,23.19
2023-06-07T06:10:03.227Z,23.22
2023-06-07T06:11:02.973Z,23.24
2023-06-07T06:12:03.032Z,23.25
2023-06-07T06:13:03.120Z,23.26
2023-06-07T06:14:03.157Z,23.28
2023-06-07T06:15:03.234Z,23.30
2023-06-07T06:16:03.291Z,23.31
2023-06-07T06:17:03.431Z,23.33
2023-06-07T06:18:03.445Z,23.34
2023-06-07T06:19:03.545Z,23.35
2023-06-07T06:20:03.841Z,23.37
2023-06-07T06:21:03.543Z,23.38
2023-06-07T06:22:03.602Z,23.39
2023-06-07T06:23:03.664Z,23.41
2023-06-07T06:24:03.742Z,23.41
2023-06-07T06:25:03.741Z,23.42
2023-06-07T06:26:03.815Z,23.40
2023-06-07T06:27:03.958Z,23.41
2023-06-07T06:28:03.959Z,23.39
2023-06-07T06:29:03.929Z,23.33
2023-06-07T06:30:04.279Z,23.32
2023-06-07T06:31:04.012Z,23.30
2023-06-07T06:32:03.931Z,23.29
2023-06-07T06:33:03.992Z,23.27
2023-06-07T06:34:03.933Z,23.26
2023-06-07T06:35:03.951Z,23.24
2023-06-07T06:36:03.964Z,23.22
2023-06-07T06:37:03.994Z,23.19
2023-06-07T06:38:03.998Z,23.14
2023-06-07T06:39:04.020Z,23.13
2023-06-07T06:40:04.188Z,23.12
2023-06-07T06:41:05.052Z,23.11
2023-06-07T06:42:04.269Z,23.10
2023-06-07T06:43:04.288Z,23.11
2023-06-07T06:44:04.305Z,23.11
2023-06-07T06:45:04.330Z,23.10
2023-06-07T06:46:04.362Z,23.11
2023-06-07T06:47:04.463Z,23.10
2023-06-07T06:48:04.475Z,23.08
2023-06-07T06:49:12.734Z,23.08
2023-06-07T06:50:12.026Z,23.07
2023-06-07T06:51:05.519Z,23.05
2023-06-07T06:52:04.446Z,23.06
2023-06-07T06:53:04.436Z,23.06
2023-06-07T06:54:04.435Z,23.06
2023-06-07T06:55:04.432Z,23.06
2023-06-07T06:56:04.449Z,23.07
2023-06-07T06:57:04.984Z,23.07
2023-06-07T06:58:04.440Z,23.08
2023-06-07T06:59:04.433Z,23.07
2023-06-07T07:00:04.729Z,23.08
2023-06-07T07:01:04.450Z,23.09
2023-06-07T07:02:04.554Z,23.11
2023-06-07T07:03:05.061Z,23.12
2023-06-07T07:04:04.524Z,23.13
2023-06-07T07:05:04.425Z,23.12
2023-06-07T07:06:04.434Z,23.13
2023-06-07T07:07:04.423Z,23.14
2023-06-07T07:08:04.411Z,23.16
2023-06-07T07:09:04.409Z,23.18
2023-06-07T07:10:04.728Z,23.19
2023-06-07T07:11:04.421Z,23.18
2023-06-07T07:12:04.429Z,23.17
2023-06-07T07:13:04.405Z,23.18
2023-06-07T07:14:04.415Z,23.15
2023-06-07T07:15:04.386Z,23.08
2023-06-07T07:16:04.998Z,23.08
2023-06-07T07:17:04.423Z,23.07
2023-06-07T07:18:04.415Z,23.03
2023-06-07T07:19:04.370Z,22.99
2023-06-07T07:20:04.614Z,22.94
2023-06-07T07:21:04.374Z,22.90
2023-06-07T07:22:04.391Z,22.84
2023-06-07T07:23:04.383Z,22.80
2023-06-07T07:24:04.434Z,22.77
2023-06-07T07:25:04.397Z,22.74
2023-06-07T07:26:04.388Z,22.72
2023-06-07T07:27:04.404Z,22.71
2023-06-07T07:28:04.428Z,22.68
2023-06-07T07:29:04.485Z,22.66
2023-06-07T07:30:07.656Z,22.65
2023-06-07T07:31:04.633Z,22.63
2023-06-07T07:32:04.552Z,22.62
2023-06-07T07:33:04.609Z,22.60
2023-06-07T07:34:04.580Z,22.59
2023-06-07T07:35:04.589Z,22.57
2023-06-07T07:36:04.590Z,22.54
2023-06-07T07:37:04.590Z,22.54
2023-06-07T07:38:04.594Z,22.53
2023-06-07T07:39:04.615Z,22.52
2023-06-07T07:40:04.841Z,22.51
2023-06-07T07:41:04.622Z,22.51
2023-06-07T07:42:04.629Z,22.51
2023-06-07T07:43:04.660Z,22.50
2023-06-07T07:44:04.646Z,22.50
2023-06-07T07:45:04.663Z,22.49
2023-06-07T07:46:04.789Z,22.49
2023-06-07T07:47:04.695Z,22.48
2023-06-07T07:48:04.756Z,22.48
2023-06-07T07:49:04.690Z,22.46
2023-06-07T07:50:05.766Z,22.45
2023-06-07T07:51:04.785Z,22.44
2023-06-07T07:52:04.709Z,22.44
2023-06-07T07:53:04.839Z,22.44
2023-06-07T07:54:04.715Z,22.44
2023-06-07T07:55:05.174Z,22.43
2023-06-07T07:56:04.750Z,22.42
2023-06-07T07:57:04.749Z,22.42
2023-06-07T07:58:04.750Z,22.42
2023-06-07T07:59:04.771Z,22.42
2023-06-07T08:00:04.978Z,22.42
2023-06-07T08:01:04.792Z,22.43
2023-06-07T08:02:04.782Z,22.43
2023-06-07T08:03:04.986Z,22.44
2023-06-07T08:04:04.989Z,22.44
2023-06-07T08:05:05.142Z,22.44
2023-06-07T08:06:05.036Z,22.43
2023-06-07T08:07:05.127Z,22.44
2023-06-07T08:08:05.164Z,22.44
2023-06-07T08:09:05.240Z,22.44
2023-06-07T08:10:05.480Z,22.43
2023-06-07T08:11:05.394Z,22.44
2023-06-07T08:12:06.385Z,22.44
2023-06-07T08:13:05.402Z,22.44
2023-06-07T08:14:06.002Z,22.45
2023-06-07T08:15:05.397Z,22.45
2023-06-07T08:16:05.464Z,22.46
2023-06-07T08:17:05.417Z,22.45
2023-06-07T08:18:05.417Z,22.45
2023-06-07T08:19:05.481Z,22.46
2023-06-07T08:20:05.906Z,22.47
2023-06-07T08:21:05.583Z,22.48
2023-06-07T08:22:06.443Z,22.50
2023-06-07T08:23:05.704Z,22.51
2023-06-07T08:24:05.862Z,22.52
2023-06-07T08:25:05.840Z,22.55
2023-06-07T08:26:06.031Z,22.56
2023-06-07T08:27:05.955Z,22.58
2023-06-07T08:28:06.010Z,22.59
2023-06-07T08:29:06.061Z,22.62
2023-06-07T08:30:06.452Z,22.63
2023-06-07T08:31:06.199Z,22.65
2023-06-07T08:32:06.239Z,22.67
2023-06-07T08:33:06.361Z,22.68
2023-06-07T08:34:06.445Z,22.69
2023-06-07T08:35:06.416Z,22.69
2023-06-07T08:36:06.535Z,22.70
2023-06-07T08:37:06.528Z,22.70
2023-06-07T08:38:06.568Z,22.71
2023-06-07T08:39:07.569Z,22.71
2023-06-07T08:40:07.039Z,22.72
2023-06-07T08:41:06.720Z,22.73
2023-06-07T08:42:06.776Z,22.74
2023-06-07T08:43:06.999Z,22.74
2023-06-07T08:44:06.895Z,22.75
2023-06-07T08:45:06.944Z,22.76
2023-06-07T08:46:07.038Z,22.76
2023-06-07T08:47:07.109Z,22.75
2023-06-07T08:48:07.153Z,22.77
2023-06-07T08:49:07.271Z,22.76
2023-06-07T08:50:07.493Z,22.76
2023-06-07T08:51:07.293Z,22.76
2023-06-07T08:53:08.364Z,22.77
2023-06-07T08:54:07.348Z,22.76
2023-06-07T08:55:07.374Z,22.77
2023-06-07T08:56:07.371Z,22.77
2023-06-07T08:57:07.416Z,22.78
2023-06-07T08:58:08.026Z,22.78
2023-06-07T08:59:07.405Z,22.78
2023-06-07T09:00:08.412Z,22.77
2023-06-07T09:01:07.418Z,22.78
2023-06-07T09:02:07.427Z,22.78
2023-06-07T09:03:07.498Z,22.78
2023-06-07T09:04:07.490Z,22.79
2023-06-07T09:05:07.526Z,22.78
2023-06-07T09:06:07.503Z,22.78
2023-06-07T09:07:07.586Z,22.79
2023-06-07T09:08:07.624Z,22.78
2023-06-07T09:09:07.690Z,22.79
2023-06-07T09:10:08.597Z,22.79
2023-06-07T09:11:07.789Z,22.78
2023-06-07T09:12:07.977Z,22.79
2023-06-07T09:13:07.945Z,22.79
2023-06-07T09:14:07.957Z,22.79
2023-06-07T09:15:08.090Z,22.79
2023-06-07T09:16:08.065Z,22.79
2023-06-07T09:17:08.236Z,22.80
2023-06-07T09:18:08.319Z,22.80
2023-06-07T09:19:09.031Z,22.80
2023-06-07T09:20:08.296Z,22.79
2023-06-07T09:21:08.368Z,22.79
2023-06-07T09:22:08.446Z,22.80
2023-06-07T09:23:08.473Z,22.79
2023-06-07T09:24:08.622Z,22.79
2023-06-07T09:25:08.604Z,22.80
2023-06-07T09:26:08.633Z,22.80
2023-06-07T09:27:08.688Z,22.80
2023-06-07T09:28:08.743Z,22.80
2023-06-07T09:29:08.808Z,22.80
2023-06-07T09:30:09.070Z,22.81
2023-06-07T09:31:08.959Z,22.81
2023-06-07T09:32:08.955Z,22.81
2023-06-07T09:33:09.144Z,22.80
2023-06-07T09:34:09.080Z,22.81
2023-06-07T09:35:09.100Z,22.81
2023-06-07T09:36:09.240Z,22.81
2023-06-07T09:37:09.212Z,22.81
2023-06-07T09:38:09.221Z,22.81
2023-06-07T09:39:09.354Z,22.82
2023-06-07T09:40:09.355Z,22.82
2023-06-07T09:41:09.378Z,22.81
2023-06-07T09:42:09.465Z,22.82
2023-06-07T09:43:09.493Z,22.82
2023-06-07T09:44:09.559Z,22.82
2023-06-07T09:45:09.592Z,22.81
2023-06-07T09:46:09.680Z,22.82
2023-06-07T09:47:09.694Z,22.82
2023-06-07T09:48:09.760Z,22.82
2023-06-07T09:49:09.787Z,22.82
2023-06-07T09:50:09.816Z,22.82
2023-06-07T09:51:09.929Z,22.82
2023-06-07T09:52:09.954Z,22.83
2023-06-07T09:53:10.032Z,22.83
2023-06-07T09:54:10.015Z,22.83
2023-06-07T09:55:10.138Z,22.83
2023-06-07T09:56:10.174Z,22.83
2023-06-07T09:57:10.747Z,22.83
2023-06-07T09:58:10.268Z,22.83
2023-06-07T09:59:10.302Z,22.83
2023-06-07T10:00:10.335Z,22.83
2023-06-07T10:01:10.373Z,22.84
2023-06-07T10:02:10.405Z,22.85
2023-06-07T10:03:10.548Z,22.84
2023-06-07T10:04:10.619Z,22.84
2023-06-07T10:05:10.569Z,22.84
2023-06-07T10:06:10.610Z,22.85
2023-06-07T10:07:10.731Z,22.84
2023-06-07T10:08:11.500Z,22.84
2023-06-07T10:09:10.744Z,22.85
2023-06-07T10:10:11.444Z,22.86
2023-06-07T10:11:10.906Z,22.87
2023-06-07T10:12:10.907Z,22.87
2023-06-07T10:13:10.925Z,22.86
2023-06-07T10:14:10.964Z,22.87
2023-06-07T10:15:11.089Z,22.87
2023-06-07T10:16:11.190Z,22.87
2023-06-07T10:17:11.230Z,22.88
2023-06-07T10:18:11.297Z,22.87
2023-06-07T10:19:11.238Z,22.88
2023-06-07T10:20:11.296Z,22.88
2023-06-07T10:21:11.318Z,22.88
2023-06-07T10:22:11.317Z,22.88
2023-06-07T10:23:11.418Z,22.89
2023-06-07T10:24:11.489Z,22.88
2023-06-07T10:25:11.446Z,22.88
2023-06-07T10:26:11.495Z,22.88
2023-06-07T10:27:11.541Z,22.89
2023-06-07T10:28:11.562Z,22.89
2023-06-07T10:29:11.661Z,22.90
2023-06-07T10:30:11.639Z,22.89
2023-06-07T10:31:11.687Z,22.90
2023-06-07T10:32:11.755Z,22.90
2023-06-07T10:33:11.777Z,22.91
2023-06-07T10:34:11.801Z,22.90
2023-06-07T10:35:15.231Z,22.90
2023-06-07T10:36:11.849Z,22.89
2023-06-07T10:37:11.881Z,22.90
2023-06-07T10:38:11.836Z,22.91
2023-06-07T10:39:11.851Z,22.92
2023-06-07T10:40:11.895Z,22.90
2023-06-07T10:41:14.860Z,22.91
2023-06-07T10:42:11.836Z,22.91
2023-06-07T10:43:11.858Z,22.91
2023-06-07T10:44:11.829Z,22.91
2023-06-07T10:45:11.835Z,22.92
2023-06-07T10:46:11.858Z,22.92
2023-06-07T10:47:11.896Z,22.92
2023-06-07T10:48:11.863Z,22.92
2023-06-07T10:49:11.831Z,22.92
2023-06-07T10:50:12.110Z,22.92
2023-06-07T10:51:11.827Z,22.92
2023-06-07T10:52:11.838Z,22.92
2023-06-07T10:53:14.047Z,22.92
2023-06-07T10:54:11.833Z,22.92
2023-06-07T10:55:11.854Z,22.92
2023-06-07T10:56:11.924Z,22.92
2023-06-07T10:57:11.902Z,22.92
2023-06-07T10:58:11.866Z,22.93
2023-06-07T10:59:11.896Z,22.93
2023-06-07T11:00:12.700Z,22.93
2023-06-07T11:01:11.876Z,22.93
2023-06-07T11:02:11.949Z,22.93
2023-06-07T11:03:11.960Z,22.93
2023-06-07T11:04:12.048Z,22.94
2023-06-07T11:05:12.049Z,22.94
2023-06-07T11:06:11.874Z,22.94
2023-06-07T11:07:12.239Z,22.94
2023-06-07T11:08:11.910Z,22.94
2023-06-07T11:09:11.945Z,22.95
2023-06-07T11:10:12.054Z,22.95
2023-06-07T11:11:12.051Z,22.95
2023-06-07T11:12:12.052Z,22.94
2023-06-07T11:13:12.087Z,22.95
2023-06-07T11:14:12.276Z,22.95
2023-06-07T11:15:12.170Z,22.95
2023-06-07T11:16:12.215Z,22.95
2023-06-07T11:17:12.223Z,22.95
2023-06-07T11:18:16.059Z,22.96
2023-06-07T11:19:12.296Z,22.95
2023-06-07T11:20:12.299Z,22.96
2023-06-07T11:21:12.240Z,22.96
2023-06-07T11:22:12.235Z,22.96
2023-06-07T11:23:12.230Z,22.97
2023-06-07T11:24:12.338Z,22.97
2023-06-07T11:25:12.305Z,22.97
2023-06-07T11:26:12.228Z,22.97
2023-06-07T11:27:12.299Z,22.97
2023-06-07T11:28:12.228Z,22.98
2023-06-07T11:29:12.240Z,22.98
2023-06-07T11:30:12.226Z,22.98
2023-06-07T11:31:12.329Z,22.98
2023-06-07T11:32:12.342Z,22.98
2023-06-07T11:33:12.220Z,22.99
2023-06-07T11:34:12.202Z,22.99
2023-06-07T11:35:16.670Z,22.99
2023-06-07T11:36:12.525Z,22.98
2023-06-07T11:37:12.202Z,22.99
2023-06-07T11:38:12.195Z,22.99
2023-06-07T11:39:12.411Z,22.99
2023-06-07T11:40:12.198Z,22.99
2023-06-07T11:41:12.193Z,23.00
2023-06-07T11:42:12.264Z,23.00
2023-06-07T11:43:12.192Z,23.01
2023-06-07T11:44:12.182Z,23.01
2023-06-07T11:45:12.191Z,23.01
2023-06-07T11:46:12.201Z,23.02
2023-06-07T11:47:12.210Z,23.02
2023-06-07T11:48:12.266Z,23.03
2023-06-07T11:49:12.329Z,23.02
2023-06-07T11:50:12.198Z,23.03
2023-06-07T11:51:12.193Z,23.03
2023-06-07T11:52:12.209Z,23.03
2023-06-07T11:53:13.681Z,23.04
2023-06-07T11:54:12.258Z,23.04
2023-06-07T11:55:12.201Z,23.05
2023-06-07T11:56:15.098Z,23.05
2023-06-07T11:57:12.232Z,23.05
2023-06-07T11:58:12.204Z,23.05
2023-06-07T11:59:12.215Z,23.06
2023-06-07T12:00:13.107Z,23.05
2023-06-07T12:01:12.187Z,23.06
2023-06-07T12:02:12.219Z,23.06
2023-06-07T12:03:12.522Z,23.07
2023-06-07T12:04:12.361Z,23.08
2023-06-07T12:05:12.195Z,23.09
2023-06-07T12:06:12.195Z,23.08
2023-06-07T12:07:12.185Z,23.09
2023-06-07T12:08:12.171Z,23.10
2023-06-07T12:09:12.168Z,23.09
2023-06-07T12:10:12.169Z,23.11
2023-06-07T12:11:13.141Z,23.11
2023-06-07T12:12:12.244Z,23.12
2023-06-07T12:13:12.176Z,23.13
2023-06-07T12:14:12.146Z,23.12
2023-06-07T12:15:12.155Z,23.14
2023-06-07T12:16:12.193Z,23.13
2023-06-07T12:17:12.150Z,23.14
2023-06-07T12:18:12.208Z,23.14
2023-06-07T12:19:12.133Z,23.15
2023-06-07T12:20:12.125Z,23.16
2023-06-07T12:21:12.132Z,23.17
2023-06-07T12:22:12.134Z,23.17
2023-06-07T12:23:12.109Z,23.17
2023-06-07T12:24:12.211Z,23.18
2023-06-07T12:25:12.107Z,23.18
2023-06-07T12:26:12.123Z,23.19
2023-06-07T12:27:12.165Z,23.20
2023-06-07T12:28:12.098Z,23.20
2023-06-07T12:29:12.102Z,23.21
2023-06-07T12:30:12.109Z,23.21
2023-06-07T12:31:12.140Z,23.21
2023-06-07T12:32:12.104Z,23.21
2023-06-07T12:33:12.098Z,23.22
2023-06-07T12:34:12.180Z,23.22
2023-06-07T12:35:12.112Z,23.21
2023-06-07T12:36:12.094Z,23.21
2023-06-07T12:37:12.112Z,23.22
2023-06-07T12:38:12.102Z,23.22
2023-06-07T12:39:12.100Z,23.23
2023-06-07T12:40:12.123Z,23.24
2023-06-07T12:41:12.153Z,23.24
2023-06-07T12:42:12.103Z,23.25
2023-06-07T12:43:12.198Z,23.26
2023-06-07T12:44:12.089Z,23.27
2023-06-07T12:45:12.637Z,23.28
2023-06-07T12:46:12.147Z,23.28
2023-06-07T12:47:12.120Z,23.29
2023-06-07T12:48:12.138Z,23.29
2023-06-07T12:49:12.069Z,23.30
2023-06-07T12:50:12.130Z,23.31
2023-06-07T12:51:12.052Z,23.32
2023-06-07T12:52:12.055Z,23.32
2023-06-07T12:53:12.059Z,23.33
2023-06-07T12:54:12.033Z,23.34